createdAt,value
2022-12-07T00:02:50.763Z,2.45
2022-12-07T00:05:52.970Z,2.65
2022-12-07T00:08:57.010Z,2.95
2022-12-07T00:12:00.866Z,3.28
2022-12-07T00:15:05.937Z,3.65
2022-12-07T00:18:11.680Z,4.00
2022-12-07T00:21:34.434Z,3.80
2022-12-07T00:24:36.558Z,3.65
2022-12-07T00:27:38.772Z,3.55
2022-12-07T00:30:42.771Z,5.20
2022-12-07T00:33:45.984Z,3.60
2022-12-07T00:36:48.871Z,4.03
2022-12-07T00:39:51.010Z,3.42
2022-12-07T00:42:53.147Z,3.97
2022-12-07T00:45:56.215Z,3.10
2022-12-07T00:48:58.602Z,3.80
2022-12-07T00:52:01.530Z,3.75
2022-12-07T00:55:04.728Z,3.72
2022-12-07T00:58:08.848Z,3.83
2022-12-07T01:01:12.504Z,2.75
2022-12-07T01:04:14.795Z,3.65
2022-12-07T01:07:18.580Z,3.60
2022-12-07T01:10:20.679Z,3.20
2022-12-07T01:13:22.904Z,3.75
2022-12-07T01:16:27.766Z,4.53
2022-12-07T01:19:29.956Z,3.50
2022-12-07T01:22:32.052Z,4.35
2022-12-07T01:25:34.205Z,5.20
2022-12-07T01:28:38.627Z,3.17
2022-12-07T01:31:41.127Z,4.15
2022-12-07T01:34:43.255Z,3.75
2022-12-07T01:37:45.413Z,4.55
2022-12-07T01:40:56.509Z,5.07
2022-12-07T01:44:15.590Z,5.35
2022-12-07T01:47:17.863Z,5.70
2022-12-07T01:50:21.061Z,6.30
2022-12-07T01:53:28.002Z,6.95
2022-12-07T01:56:30.846Z,6.18
2022-12-07T01:59:33.582Z,4.75
2022-12-07T02:02:40.184Z,4.07
2022-12-07T02:05:46.833Z,4.35
2022-12-07T02:08:51.135Z,5.10
2022-12-07T02:11:55.179Z,5.63
2022-12-07T02:14:57.321Z,4.88
2022-12-07T02:18:13.522Z,5.53
2022-12-07T02:21:43.758Z,5.53
2022-12-07T02:24:56.677Z,3.75
2022-12-07T02:28:12.403Z,5.28
2022-12-07T02:31:21.934Z,6.47
2022-12-07T02:34:56.779Z,4.93
2022-12-07T02:38:29.052Z,4.38
2022-12-07T02:41:38.710Z,4.55
2022-12-07T02:44:47.847Z,5.80
2022-12-07T02:48:05.088Z,4.47
2022-12-07T02:55:29.614Z,5.38
2022-12-07T02:59:00.149Z,5.60
2022-12-07T03:02:26.691Z,4.70
2022-12-07T03:05:45.375Z,4.57
2022-12-07T03:09:26.901Z,5.28
2022-12-07T03:13:09.761Z,6.50
2022-12-07T03:16:42.706Z,6.90
2022-12-07T03:19:48.354Z,4.10
2022-12-07T03:22:54.988Z,4.60
2022-12-07T03:26:08.908Z,5.00
2022-12-07T03:30:05.713Z,4.53
2022-12-07T03:34:25.376Z,4.68
2022-12-07T03:46:43.816Z,4.55
2022-12-07T04:03:58.683Z,4.57
2022-12-07T04:19:27.100Z,5.10
2022-12-07T04:25:49.985Z,5.63
2022-12-07T04:28:53.321Z,4.95
2022-12-07T04:31:55.483Z,5.07
2022-12-07T04:34:57.650Z,6.70
2022-12-07T04:37:59.964Z,5.63
2022-12-07T04:41:08.732Z,5.68
2022-12-07T04:44:21.882Z,6.70
2022-12-07T04:47:24.071Z,5.68
2022-12-07T04:50:26.176Z,6.10
2022-12-07T04:54:19.286Z,6.32
2022-12-07T04:57:21.374Z,6.13
2022-12-07T05:00:24.785Z,4.97
2022-12-07T05:03:27.234Z,6.30
2022-12-07T05:06:30.021Z,4.70
2022-12-07T05:09:32.253Z,5.57
2022-12-07T05:12:34.525Z,5.53
2022-12-07T05:15:37.391Z,6.80
2022-12-07T05:18:39.570Z,7.13
2022-12-07T05:21:42.913Z,6.80
2022-12-07T05:24:45.140Z,7.95
2022-12-07T05:27:47.563Z,11.13
2022-12-07T05:30:49.695Z,9.75
2022-12-07T05:33:52.164Z,8.32
2022-12-07T05:36:54.585Z,8.52
2022-12-07T05:39:56.820Z,8.07
2022-12-07T05:43:04.562Z,9.80
2022-12-07T05:46:07.154Z,11.27
2022-12-07T05:49:10.325Z,9.60
2022-12-07T05:52:13.066Z,6.90
2022-12-07T05:55:15.211Z,7.57
2022-12-07T05:58:35.966Z,7.80
2022-12-07T06:01:41.885Z,8.20
2022-12-07T06:04:47.042Z,7.53
2022-12-07T06:07:51.103Z,8.20
2022-12-07T06:11:17.403Z,6.70
2022-12-07T06:14:19.623Z,7.82
2022-12-07T06:17:21.806Z,8.55
2022-12-07T06:20:24.077Z,8.52
2022-12-07T06:23:26.767Z,7.28
2022-12-07T06:26:30.322Z,7.57
2022-12-07T06:29:33.525Z,8.15
2022-12-07T06:32:37.481Z,7.15
2022-12-07T06:35:41.078Z,7.10
2022-12-07T06:38:43.809Z,8.68
2022-12-07T06:41:46.443Z,8.40
2022-12-07T06:44:48.453Z,7.50
2022-12-07T06:47:50.636Z,8.90
2022-12-07T06:50:55.307Z,9.73
2022-12-07T06:53:57.798Z,12.50
2022-12-07T06:56:59.804Z,18.30
2022-12-07T07:00:02.236Z,17.60
2022-12-07T07:03:04.851Z,19.27
2022-12-07T07:06:09.022Z,17.58
2022-12-07T07:09:11.112Z,17.70
2022-12-07T07:12:13.234Z,16.65
2022-12-07T07:15:15.421Z,11.50
2022-12-07T07:18:17.871Z,11.15
2022-12-07T07:21:19.884Z,10.50
2022-12-07T07:24:22.119Z,11.07
2022-12-07T07:27:24.148Z,12.25
2022-12-07T07:30:27.041Z,10.88
2022-12-07T07:33:29.233Z,11.13
2022-12-07T07:36:31.272Z,11.43
2022-12-07T07:39:33.618Z,11.30
2022-12-07T07:42:35.746Z,12.60
2022-12-07T07:45:37.989Z,11.95
2022-12-07T07:48:41.110Z,10.73
2022-12-07T07:51:43.063Z,16.80
2022-12-07T07:54:45.260Z,17.05
2022-12-07T07:57:52.777Z,17.95
2022-12-07T08:00:56.718Z,17.30
2022-12-07T08:03:58.756Z,16.65
2022-12-07T08:07:01.153Z,16.52
2022-12-07T08:10:04.514Z,13.98
2022-12-07T08:13:13.345Z,15.05
2022-12-07T08:16:16.435Z,15.95
2022-12-07T08:19:19.220Z,15.93
2022-12-07T08:22:21.221Z,15.98
2022-12-07T08:25:23.768Z,15.18
2022-12-07T08:28:28.732Z,15.40
2022-12-07T08:31:30.952Z,11.98
2022-12-07T08:34:33.012Z,13.00
2022-12-07T08:37:35.230Z,12.05
2022-12-07T08:40:39.105Z,11.88
2022-12-07T08:43:41.412Z,11.75
2022-12-07T08:46:53.008Z,11.63
2022-12-07T08:49:56.476Z,9.60
2022-12-07T08:53:00.850Z,8.90
2022-12-07T08:56:03.208Z,9.23
2022-12-07T08:59:06.827Z,11.65
2022-12-07T09:02:09.006Z,9.82
2022-12-07T09:05:16.525Z,7.80
2022-12-07T09:08:19.786Z,7.10
2022-12-07T09:11:25.520Z,8.52
2022-12-07T09:14:31.162Z,7.15
2022-12-07T09:17:34.726Z,7.65
2022-12-07T09:20:37.474Z,6.95
2022-12-07T09:23:39.670Z,6.93
2022-12-07T09:26:41.732Z,7.00
2022-12-07T09:29:43.791Z,7.30
2022-12-07T09:32:46.102Z,6.03
2022-12-07T09:35:49.944Z,8.05
2022-12-07T09:39:01.731Z,7.30
2022-12-07T09:42:05.881Z,7.28
2022-12-07T09:45:22.787Z,7.30
2022-12-07T09:48:33.607Z,7.32
2022-12-07T09:51:37.044Z,7.72
2022-12-07T09:54:44.971Z,8.15
2022-12-07T09:57:48.808Z,7.00
2022-12-07T10:00:58.330Z,7.03
2022-12-07T10:04:10.829Z,7.00
2022-12-07T10:07:13.598Z,7.05
2022-12-07T10:10:39.618Z,7.47
2022-12-07T10:13:43.703Z,6.68
2022-12-07T10:16:45.804Z,6.10
2022-12-07T10:19:48.672Z,7.30
2022-12-07T10:23:06.193Z,7.55
2022-12-07T10:26:23.114Z,6.80
2022-12-07T10:29:34.498Z,6.30
2022-12-07T10:32:37.920Z,6.72
2022-12-07T10:35:44.736Z,8.32
2022-12-07T10:39:00.448Z,6.85
2022-12-07T10:42:04.543Z,6.47
2022-12-07T10:45:11.577Z,6.53
2022-12-07T10:48:26.021Z,8.30
2022-12-07T10:51:46.305Z,6.93
2022-12-07T10:55:14.090Z,9.60
2022-12-07T10:58:43.737Z,8.98
2022-12-07T11:05:18.124Z,8.27
2022-12-07T11:08:34.318Z,7.82
2022-12-07T11:11:44.136Z,7.35
2022-12-07T11:15:18.348Z,7.82
2022-12-07T11:18:37.839Z,34.45
2022-12-07T11:25:14.988Z,7.38
2022-12-07T11:28:58.494Z,7.68
2022-12-07T11:32:17.074Z,8.13
2022-12-07T11:35:40.392Z,8.73
2022-12-07T11:38:57.183Z,9.25
2022-12-07T11:42:21.503Z,7.60
2022-12-07T11:45:28.765Z,9.00
2022-12-07T11:48:39.620Z,6.43
2022-12-07T11:51:44.185Z,9.35
2022-12-07T11:54:47.590Z,10.90
2022-12-07T11:58:04.747Z,9.07
2022-12-07T12:01:39.008Z,8.55
2022-12-07T12:05:00.444Z,7.65
2022-12-07T12:16:00.519Z,6.75
2022-12-07T12:19:02.992Z,5.43
2022-12-07T12:22:18.331Z,7.30
2022-12-07T12:25:49.872Z,7.05
2022-12-07T12:29:01.704Z,7.40
2022-12-07T12:32:23.105Z,7.35
2022-12-07T12:35:37.358Z,7.88
2022-12-07T12:39:07.656Z,6.55
2022-12-07T12:42:19.769Z,7.85
2022-12-07T12:45:28.129Z,7.97
2022-12-07T12:48:39.279Z,7.88
2022-12-07T12:51:43.628Z,8.02
2022-12-07T12:55:03.226Z,8.75
2022-12-07T12:58:20.677Z,9.95
2022-12-07T13:01:29.578Z,9.02
2022-12-07T13:04:40.680Z,9.20
2022-12-07T13:07:48.941Z,11.00
2022-12-07T13:10:51.119Z,10.25
2022-12-07T13:13:53.297Z,11.13
2022-12-07T13:16:55.605Z,9.32
2022-12-07T13:19:59.930Z,9.70
2022-12-07T13:23:02.760Z,9.70
2022-12-07T13:26:17.855Z,8.93
2022-12-07T13:29:23.489Z,9.40
2022-12-07T13:32:38.449Z,9.27
2022-12-07T13:35:50.290Z,9.30
2022-12-07T13:39:00.114Z,9.38
2022-12-07T13:42:17.261Z,10.40
2022-12-07T13:45:50.131Z,11.05
2022-12-07T13:48:55.285Z,11.85
2022-12-07T13:52:16.022Z,11.50
2022-12-07T13:55:18.649Z,11.75
2022-12-07T13:58:20.752Z,13.35
2022-12-07T14:01:23.468Z,12.13
2022-12-07T14:04:35.100Z,12.00
2022-12-07T14:07:49.791Z,12.70
2022-12-07T14:10:51.869Z,14.15
2022-12-07T14:14:01.477Z,13.93
2022-12-07T14:17:20.413Z,14.82
2022-12-07T14:20:40.357Z,15.75
2022-12-07T14:23:42.709Z,17.83
2022-12-07T14:26:51.203Z,14.57
2022-12-07T14:29:53.774Z,14.65
2022-12-07T14:33:00.325Z,15.48
2022-12-07T14:36:02.528Z,20.17
2022-12-07T14:39:08.722Z,17.75
2022-12-07T14:42:13.916Z,18.30
2022-12-07T14:45:19.458Z,18.90
2022-12-07T14:55:24.782Z,19.45
2022-12-07T14:58:26.828Z,17.67
2022-12-07T15:01:29.060Z,20.60
2022-12-07T15:04:33.569Z,20.15
2022-12-07T15:07:35.992Z,20.35
2022-12-07T15:10:41.369Z,23.10
2022-12-07T15:14:01.974Z,16.65
2022-12-07T15:17:09.715Z,22.38
2022-12-07T15:20:19.424Z,22.60
2022-12-07T15:23:21.999Z,22.83
2022-12-07T15:26:27.394Z,23.35
2022-12-07T15:29:30.180Z,25.90
2022-12-07T15:36:32.714Z,24.17
2022-12-07T15:39:37.625Z,20.33
2022-12-07T15:42:39.721Z,22.25
2022-12-07T15:45:41.860Z,21.30
2022-12-07T15:48:43.956Z,20.35
2022-12-07T15:51:46.836Z,24.73
2022-12-07T15:54:48.982Z,27.08
2022-12-07T15:57:51.502Z,25.00
2022-12-07T16:00:54.373Z,25.88
2022-12-07T16:03:58.948Z,24.52
2022-12-07T16:07:01.375Z,25.33
2022-12-07T16:10:04.017Z,26.20
2022-12-07T16:13:06.130Z,24.95
2022-12-07T16:16:12.805Z,24.58
2022-12-07T16:19:15.019Z,27.52
2022-12-07T16:22:17.079Z,25.63
2022-12-07T16:25:19.137Z,22.95
2022-12-07T16:28:21.155Z,24.90
2022-12-07T16:31:25.955Z,25.67
2022-12-07T16:34:28.221Z,24.77
2022-12-07T16:37:30.530Z,27.40
2022-12-07T16:40:32.680Z,29.08
2022-12-07T16:43:38.651Z,29.85
2022-12-07T16:46:42.874Z,27.85
2022-12-07T16:49:45.270Z,31.80
2022-12-07T16:52:47.723Z,29.67
2022-12-07T16:55:50.832Z,29.35
2022-12-07T16:58:53.684Z,30.13
2022-12-07T17:01:56.395Z,31.63
2022-12-07T17:05:00.034Z,33.85
2022-12-07T17:08:06.287Z,32.45
2022-12-07T17:11:26.395Z,32.60
2022-12-07T17:14:52.696Z,31.00
2022-12-07T17:17:57.304Z,32.22
2022-12-07T17:21:08.239Z,30.25
2022-12-07T17:24:12.586Z,32.20
2022-12-07T17:27:15.931Z,33.20
2022-12-07T17:30:18.366Z,32.97
2022-12-07T17:33:21.417Z,32.92
2022-12-07T17:36:26.692Z,33.28
2022-12-07T17:39:29.918Z,34.78
2022-12-07T17:42:37.982Z,35.08
2022-12-07T17:45:40.103Z,34.13
2022-12-07T17:48:42.873Z,32.00
2022-12-07T17:52:03.375Z,34.42
2022-12-07T17:55:06.370Z,33.33
2022-12-07T17:58:08.729Z,33.78
2022-12-07T18:01:11.421Z,34.58
2022-12-07T18:04:13.690Z,35.92
2022-12-07T18:07:15.839Z,38.17
2022-12-07T18:10:17.979Z,38.28
2022-12-07T18:13:52.558Z,38.75
2022-12-07T18:16:54.835Z,24.27
2022-12-07T18:19:56.958Z,22.80
2022-12-07T18:22:59.085Z,22.58
2022-12-07T18:26:01.717Z,23.15
2022-12-07T18:29:06.142Z,21.27
2022-12-07T18:32:08.321Z,22.30
2022-12-07T18:35:10.659Z,36.05
2022-12-07T18:38:17.693Z,34.65
2022-12-07T18:41:23.251Z,31.27
2022-12-07T18:44:25.351Z,31.92
2022-12-07T18:47:28.695Z,36.53
2022-12-07T18:50:31.365Z,40.58
2022-12-07T18:53:36.538Z,35.45
2022-12-07T18:56:41.341Z,34.08
2022-12-07T18:59:51.827Z,30.80
2022-12-07T19:02:55.049Z,27.33
2022-12-07T19:05:59.398Z,24.77
2022-12-07T19:09:02.385Z,27.27
2022-12-07T19:12:05.688Z,23.30
2022-12-07T19:15:10.214Z,28.02
2022-12-07T19:18:12.451Z,26.60
2022-12-07T19:21:14.668Z,28.77
2022-12-07T19:24:23.181Z,25.25
2022-12-07T19:27:27.295Z,25.02
2022-12-07T19:30:29.926Z,29.50
2022-12-07T19:33:33.638Z,29.13
2022-12-07T19:36:35.975Z,29.13
2022-12-07T19:39:40.945Z,26.67
2022-12-07T19:42:44.221Z,24.63
2022-12-07T19:45:48.137Z,24.35
2022-12-07T19:48:52.360Z,23.33
2022-12-07T19:51:59.546Z,23.70
2022-12-07T19:55:02.802Z,22.88
2022-12-07T19:58:11.036Z,25.42
2022-12-07T20:01:56.521Z,23.17
2022-12-07T20:05:08.793Z,24.35
2022-12-07T20:08:11.066Z,25.92
2022-12-07T20:11:33.426Z,24.83
2022-12-07T20:14:36.243Z,24.98
2022-12-07T20:17:49.544Z,23.60
2022-12-07T20:20:57.116Z,23.42
2022-12-07T20:24:03.137Z,25.13
2022-12-07T20:27:08.202Z,22.90
2022-12-07T20:30:12.420Z,23.38
2022-12-07T20:33:18.025Z,22.45
2022-12-07T20:36:21.641Z,21.60
2022-12-07T20:39:24.120Z,19.77
2022-12-07T20:42:43.434Z,20.15
2022-12-07T20:45:57.822Z,22.75
2022-12-07T20:49:52.222Z,20.85
2022-12-07T20:56:46.953Z,19.23
2022-12-07T21:04:33.487Z,20.33
2022-12-07T21:07:37.089Z,21.35
2022-12-07T21:10:39.534Z,20.25
2022-12-07T21:13:44.514Z,20.65
2022-12-07T21:16:48.809Z,19.42
2022-12-07T21:19:51.096Z,19.58
2022-12-07T21:22:56.293Z,18.52
2022-12-07T21:25:59.007Z,22.27
2022-12-07T21:29:08.478Z,21.52
2022-12-07T21:32:11.471Z,21.85
2022-12-07T21:35:13.571Z,22.25
2022-12-07T21:38:15.634Z,22.95
2022-12-07T21:41:24.548Z,24.40
2022-12-07T21:44:33.960Z,25.35
2022-12-07T21:47:36.348Z,26.73
2022-12-07T21:50:40.065Z,27.10
2022-12-07T21:53:43.467Z,22.80
2022-12-07T21:56:45.474Z,26.40
2022-12-07T21:59:47.748Z,23.45
2022-12-07T22:02:49.973Z,23.60
2022-12-07T22:05:52.213Z,22.50
2022-12-07T22:08:56.116Z,22.63
2022-12-07T22:11:58.271Z,23.45
2022-12-07T22:15:06.684Z,20.77
2022-12-07T22:18:10.247Z,20.20
2022-12-07T22:21:12.541Z,20.73
2022-12-07T22:24:15.286Z,20.30
2022-12-07T22:27:18.009Z,20.67
2022-12-07T22:30:23.908Z,22.55
2022-12-07T22:33:26.074Z,20.52
2022-12-07T22:36:29.486Z,19.17
2022-12-07T22:39:33.938Z,19.02
2022-12-07T22:42:38.271Z,21.95
2022-12-07T22:45:40.497Z,18.45
2022-12-07T22:48:42.639Z,17.70
2022-12-07T22:51:44.826Z,18.13
2022-12-07T22:54:47.158Z,17.52
2022-12-07T22:57:49.154Z,16.60
2022-12-07T23:00:51.254Z,15.30
2022-12-07T23:03:53.541Z,16.98
2022-12-07T23:07:00.215Z,16.42
2022-12-07T23:10:02.265Z,15.85
2022-12-07T23:13:23.925Z,17.45
2022-12-07T23:16:27.074Z,15.63
2022-12-07T23:19:29.997Z,16.00
2022-12-07T23:22:32.144Z,16.85
2022-12-07T23:25:34.459Z,16.65
2022-12-07T23:28:39.231Z,16.13
2022-12-07T23:31:41.402Z,16.80
2022-12-07T23:34:43.969Z,14.77
2022-12-07T23:37:46.051Z,15.68
2022-12-07T23:40:48.094Z,17.05
2022-12-07T23:43:50.536Z,17.27
2022-12-07T23:46:52.650Z,17.77
2022-12-07T23:49:54.898Z,16.23
2022-12-07T23:52:56.928Z,16.58
2022-12-07T23:55:59.153Z,15.88
2022-12-07T23:59:02.169Z,16.30
